sensor_id;sensor_type;location;lat;lon;timestamp;pressure;altitude;pressure_sealevel;temperature;humidity
75359;BME280;64046;51.978;5.934;2023-01-08T00:01:48;100229.63;;;14.71;99.43
75359;BME280;64046;51.978;5.934;2023-01-08T00:04:17;100224.91;;;14.63;99.23
75359;BME280;64046;51.978;5.934;2023-01-08T00:06:46;100219.75;;;14.62;99.08
75359;BME280;64046;51.978;5.934;2023-01-08T00:09:18;100202.09;;;14.75;98.70
75359;BME280;64046;51.978;5.934;2023-01-08T00:11:47;100210.13;;;14.61;98.81
75359;BME280;64046;51.978;5.934;2023-01-08T00:14:16;100216.34;;;14.60;98.66
75359;BME280;64046;51.978;5.934;2023-01-08T00:16:45;100217.84;;;14.64;98.45
75359;BME280;64046;51.978;5.934;2023-01-08T00:19:17;100201.25;;;14.75;98.21
75359;BME280;64046;51.978;5.934;2023-01-08T00:21:46;100195.81;;;14.65;98.59
75359;BME280;64046;51.978;5.934;2023-01-08T00:24:18;100198.31;;;14.66;98.52
75359;BME280;64046;51.978;5.934;2023-01-08T00:26:47;100197.69;;;14.63;98.61
75359;BME280;64046;51.978;5.934;2023-01-08T00:29:16;100189.78;;;14.63;98.57
75359;BME280;64046;51.978;5.934;2023-01-08T00:31:45;100184.81;;;14.71;97.99
75359;BME280;64046;51.978;5.934;2023-01-08T00:34:14;100182.06;;;14.73;98.01
75359;BME280;64046;51.978;5.934;2023-01-08T00:36:43;100182.38;;;14.68;98.17
75359;BME280;64046;51.978;5.934;2023-01-08T00:39:12;100177.94;;;14.68;98.07
75359;BME280;64046;51.978;5.934;2023-01-08T00:41:44;100181.91;;;14.87;97.49
75359;BME280;64046;51.978;5.934;2023-01-08T00:44:14;100179.63;;;14.69;97.81
75359;BME280;64046;51.978;5.934;2023-01-08T00:46:43;100180.69;;;14.67;97.78
75359;BME280;64046;51.978;5.934;2023-01-08T00:49:12;100178.81;;;14.69;97.70
75359;BME280;64046;51.978;5.934;2023-01-08T00:51:42;100164.56;;;14.72;97.34
75359;BME280;64046;51.978;5.934;2023-01-08T00:54:11;100160.00;;;14.74;96.82
75359;BME280;64046;51.978;5.934;2023-01-08T00:56:40;100161.06;;;14.71;97.14
75359;BME280;64046;51.978;5.934;2023-01-08T00:59:12;100163.94;;;14.92;96.27
75359;BME280;64046;51.978;5.934;2023-01-08T01:01:41;100163.28;;;14.77;96.42
75359;BME280;64046;51.978;5.934;2023-01-08T01:04:10;100160.66;;;14.77;96.22
75359;BME280;64046;51.978;5.934;2023-01-08T01:06:41;100156.25;;;14.89;96.01
75359;BME280;64046;51.978;5.934;2023-01-08T01:09:11;100159.66;;;14.78;96.12
75359;BME280;64046;51.978;5.934;2023-01-08T01:11:40;100160.25;;;14.70;96.21
75359;BME280;64046;51.978;5.934;2023-01-08T01:14:12;100163.00;;;14.93;95.30
75359;BME280;64046;51.978;5.934;2023-01-08T01:16:41;100162.53;;;14.75;95.54
75359;BME280;64046;51.978;5.934;2023-01-08T01:19:12;100161.69;;;14.75;95.47
75359;BME280;64046;51.978;5.934;2023-01-08T01:21:42;100158.94;;;14.76;95.52
75359;BME280;64046;51.978;5.934;2023-01-08T01:24:12;100165.91;;;14.77;95.38
75359;BME280;64046;51.978;5.934;2023-01-08T01:26:41;100159.19;;;14.73;95.47
75359;BME280;64046;51.978;5.934;2023-01-08T01:29:13;100157.09;;;14.90;95.22
75359;BME280;64046;51.978;5.934;2023-01-08T01:31:42;100152.22;;;14.72;95.41
75359;BME280;64046;51.978;5.934;2023-01-08T01:34:11;100149.56;;;14.72;95.73
75359;BME280;64046;51.978;5.934;2023-01-08T01:36:40;100154.84;;;14.72;95.54
75359;BME280;64046;51.978;5.934;2023-01-08T01:39:09;100153.16;;;14.71;95.43
75359;BME280;64046;51.978;5.934;2023-01-08T01:41:41;100148.56;;;14.86;95.24
75359;BME280;64046;51.978;5.934;2023-01-08T01:44:41;100155.34;;;15.01;93.86
75359;BME280;64046;51.978;5.934;2023-01-08T01:47:19;100157.22;;;14.88;94.74
75359;BME280;64046;51.978;5.934;2023-01-08T01:49:55;100154.81;;;14.85;94.85
75359;BME280;64046;51.978;5.934;2023-01-08T01:52:26;100143.34;;;14.73;95.60
75359;BME280;64046;51.978;5.934;2023-01-08T01:54:59;100139.84;;;14.73;95.57
75359;BME280;64046;51.978;5.934;2023-01-08T01:57:29;100142.50;;;14.73;95.66
75359;BME280;64046;51.978;5.934;2023-01-08T02:00:04;100133.28;;;14.78;95.21
75359;BME280;64046;51.978;5.934;2023-01-08T02:02:38;100144.53;;;14.56;95.66
75359;BME280;64046;51.978;5.934;2023-01-08T02:05:07;100137.22;;;14.60;95.95
75359;BME280;64046;51.978;5.934;2023-01-08T02:07:40;100141.78;;;14.70;95.67
75359;BME280;64046;51.978;5.934;2023-01-08T02:10:17;100139.75;;;14.74;95.38
75359;BME280;64046;51.978;5.934;2023-01-08T02:12:52;100147.88;;;14.71;95.34
75359;BME280;64046;51.978;5.934;2023-01-08T02:15:33;100142.50;;;14.73;95.31
75359;BME280;64046;51.978;5.934;2023-01-08T02:18:07;100132.50;;;14.65;95.87
75359;BME280;64046;51.978;5.934;2023-01-08T02:20:39;100141.47;;;14.62;96.17
75359;BME280;64046;51.978;5.934;2023-01-08T02:23:17;100138.38;;;14.68;95.99
75359;BME280;64046;51.978;5.934;2023-01-08T02:26:10;100124.44;;;14.79;94.93
75359;BME280;64046;51.978;5.934;2023-01-08T02:28:43;100134.22;;;14.66;96.03
75359;BME280;64046;51.978;5.934;2023-01-08T02:31:15;100134.31;;;14.64;96.18
75359;BME280;64046;51.978;5.934;2023-01-08T02:33:45;100123.56;;;14.54;96.08
75359;BME280;64046;51.978;5.934;2023-01-08T02:36:23;100120.34;;;14.75;95.40
75359;BME280;64046;51.978;5.934;2023-01-08T02:39:10;100129.81;;;14.78;95.20
75359;BME280;64046;51.978;5.934;2023-01-08T02:41:51;100126.44;;;14.76;95.19
75359;BME280;64046;51.978;5.934;2023-01-08T02:44:33;100112.66;;;14.72;95.74
75359;BME280;64046;51.978;5.934;2023-01-08T02:47:07;100115.75;;;14.66;96.51
75359;BME280;64046;51.978;5.934;2023-01-08T02:49:40;100112.78;;;14.70;96.71
75359;BME280;64046;51.978;5.934;2023-01-08T02:52:12;100109.31;;;14.70;96.95
75359;BME280;64046;51.978;5.934;2023-01-08T02:54:44;100111.72;;;14.60;97.47
75359;BME280;64046;51.978;5.934;2023-01-08T02:57:18;100107.59;;;14.69;97.43
75359;BME280;64046;51.978;5.934;2023-01-08T02:59:49;100103.94;;;14.59;97.83
75359;BME280;64046;51.978;5.934;2023-01-08T03:02:18;100104.81;;;14.46;97.64
75359;BME280;64046;51.978;5.934;2023-01-08T03:04:51;100102.97;;;14.60;96.96
75359;BME280;64046;51.978;5.934;2023-01-08T03:07:22;100103.78;;;14.36;96.81
75359;BME280;64046;51.978;5.934;2023-01-08T03:09:51;100099.91;;;14.29;96.99
75359;BME280;64046;51.978;5.934;2023-01-08T03:12:26;100105.16;;;14.42;96.36
75359;BME280;64046;51.978;5.934;2023-01-08T03:15:06;100101.03;;;14.38;96.24
75359;BME280;64046;51.978;5.934;2023-01-08T03:17:40;100099.06;;;14.28;96.62
75359;BME280;64046;51.978;5.934;2023-01-08T03:20:14;100099.38;;;14.24;96.19
75359;BME280;64046;51.978;5.934;2023-01-08T03:22:47;100114.88;;;14.15;96.46
75359;BME280;64046;51.978;5.934;2023-01-08T03:25:19;100105.63;;;14.10;96.61
75359;BME280;64046;51.978;5.934;2023-01-08T03:27:55;100100.06;;;14.14;95.37
75359;BME280;64046;51.978;5.934;2023-01-08T03:30:27;100106.94;;;14.04;95.41
75359;BME280;64046;51.978;5.934;2023-01-08T03:32:59;100107.56;;;13.95;95.32
75359;BME280;64046;51.978;5.934;2023-01-08T03:35:30;100119.91;;;13.94;94.89
75359;BME280;64046;51.978;5.934;2023-01-08T03:38:04;100115.47;;;13.95;94.32
75359;BME280;64046;51.978;5.934;2023-01-08T03:40:37;100117.06;;;13.84;94.78
75359;BME280;64046;51.978;5.934;2023-01-08T03:43:11;100110.53;;;13.90;94.41
75359;BME280;64046;51.978;5.934;2023-01-08T03:45:44;100112.22;;;13.91;94.19
75359;BME280;64046;51.978;5.934;2023-01-08T03:48:16;100122.84;;;13.77;94.99
75359;BME280;64046;51.978;5.934;2023-01-08T03:50:46;100124.84;;;13.73;95.43
75359;BME280;64046;51.978;5.934;2023-01-08T03:53:16;100124.19;;;13.70;95.73
75359;BME280;64046;51.978;5.934;2023-01-08T03:55:45;100118.00;;;13.71;95.66
75359;BME280;64046;51.978;5.934;2023-01-08T03:58:17;100116.84;;;13.88;95.67
75359;BME280;64046;51.978;5.934;2023-01-08T04:00:46;100111.69;;;13.73;96.28
75359;BME280;64046;51.978;5.934;2023-01-08T04:03:15;100112.22;;;13.78;96.03
75359;BME280;64046;51.978;5.934;2023-01-08T04:05:44;100113.16;;;13.77;96.32
75359;BME280;64046;51.978;5.934;2023-01-08T04:08:13;100106.41;;;13.73;96.45
75359;BME280;64046;51.978;5.934;2023-01-08T04:10:42;100103.06;;;13.71;96.89
75359;BME280;64046;51.978;5.934;2023-01-08T04:13:11;100105.78;;;13.70;97.15
75359;BME280;64046;51.978;5.934;2023-01-08T04:15:46;100101.56;;;13.93;96.53
75359;BME280;64046;51.978;5.934;2023-01-08T04:18:15;100101.03;;;13.75;97.03
75359;BME280;64046;51.978;5.934;2023-01-08T04:20:45;100095.25;;;13.82;96.94
75359;BME280;64046;51.978;5.934;2023-01-08T04:23:15;100096.50;;;13.77;97.04
75359;BME280;64046;51.978;5.934;2023-01-08T04:25:44;100093.97;;;13.75;96.82
75359;BME280;64046;51.978;5.934;2023-01-08T04:28:13;100089.91;;;13.71;97.22
75359;BME280;64046;51.978;5.934;2023-01-08T04:30:45;100098.28;;;13.89;96.86
75359;BME280;64046;51.978;5.934;2023-01-08T04:33:14;100086.50;;;13.69;97.43
75359;BME280;64046;51.978;5.934;2023-01-08T04:35:43;100080.53;;;13.67;97.40
75359;BME280;64046;51.978;5.934;2023-01-08T04:38:12;100073.47;;;13.67;97.42
75359;BME280;64046;51.978;5.934;2023-01-08T04:40:42;100087.56;;;13.66;97.93
75359;BME280;64046;51.978;5.934;2023-01-08T04:43:11;100081.78;;;13.61;98.11
75359;BME280;64046;51.978;5.934;2023-01-08T04:45:40;100080.94;;;13.61;98.06
75359;BME280;64046;51.978;5.934;2023-01-08T04:48:12;100082.28;;;13.79;97.51
75359;BME280;64046;51.978;5.934;2023-01-08T04:50:41;100068.53;;;13.63;97.75
75359;BME280;64046;51.978;5.934;2023-01-08T04:53:11;100070.28;;;13.49;98.99
75359;BME280;64046;51.978;5.934;2023-01-08T04:55:40;100067.88;;;13.46;99.29
75359;BME280;64046;51.978;5.934;2023-01-08T04:58:09;100060.09;;;13.45;99.58
75359;BME280;64046;51.978;5.934;2023-01-08T05:00:39;100068.75;;;13.60;99.14
75359;BME280;64046;51.978;5.934;2023-01-08T05:03:08;100072.81;;;13.64;98.36
75359;BME280;64046;51.978;5.934;2023-01-08T05:05:39;100070.59;;;13.83;97.67
75359;BME280;64046;51.978;5.934;2023-01-08T05:08:09;100070.00;;;13.67;97.99
75359;BME280;64046;51.978;5.934;2023-01-08T05:10:38;100059.47;;;13.67;98.25
75359;BME280;64046;51.978;5.934;2023-01-08T05:13:07;100056.84;;;13.67;98.08
75359;BME280;64046;51.978;5.934;2023-01-08T05:15:36;100062.22;;;13.65;98.26
75359;BME280;64046;51.978;5.934;2023-01-08T05:18:05;100068.19;;;13.67;98.44
75359;BME280;64046;51.978;5.934;2023-01-08T05:20:34;100055.97;;;13.66;98.42
75359;BME280;64046;51.978;5.934;2023-01-08T05:23:06;100063.03;;;13.79;98.20
75359;BME280;64046;51.978;5.934;2023-01-08T05:25:35;100062.28;;;13.64;98.63
75359;BME280;64046;51.978;5.934;2023-01-08T05:28:04;100056.19;;;13.63;98.47
75359;BME280;64046;51.978;5.934;2023-01-08T05:30:35;100056.41;;;13.73;98.70
75359;BME280;64046;51.978;5.934;2023-01-08T05:33:04;100047.78;;;13.58;98.98
75359;BME280;64046;51.978;5.934;2023-01-08T05:35:33;100050.31;;;13.47;99.57
75359;BME280;64046;51.978;5.934;2023-01-08T05:38:02;100054.22;;;13.41;99.68
75359;BME280;64046;51.978;5.934;2023-01-08T05:40:34;100044.19;;;13.59;99.37
75359;BME280;64046;51.978;5.934;2023-01-08T05:43:03;100037.25;;;13.45;99.37
75359;BME280;64046;51.978;5.934;2023-01-08T05:45:33;100054.44;;;13.51;99.35
75359;BME280;64046;51.978;5.934;2023-01-08T05:48:04;100045.66;;;13.63;99.07
75359;BME280;64046;51.978;5.934;2023-01-08T05:50:34;100050.00;;;13.52;99.30
75359;BME280;64046;51.978;5.934;2023-01-08T05:53:05;100040.38;;;13.63;98.90
75359;BME280;64046;51.978;5.934;2023-01-08T05:55:37;100040.50;;;13.62;98.61
75359;BME280;64046;51.978;5.934;2023-01-08T05:58:06;100040.72;;;13.46;99.12
75359;BME280;64046;51.978;5.934;2023-01-08T06:00:37;100040.81;;;13.57;98.70
75359;BME280;64046;51.978;5.934;2023-01-08T06:03:06;100033.25;;;13.53;98.72
75359;BME280;64046;51.978;5.934;2023-01-08T06:05:35;100047.88;;;13.57;98.28
75359;BME280;64046;51.978;5.934;2023-01-08T06:08:04;100052.19;;;13.58;97.92
75359;BME280;64046;51.978;5.934;2023-01-08T06:10:34;100043.13;;;13.62;97.45
75359;BME280;64046;51.978;5.934;2023-01-08T06:13:10;100056.94;;;13.78;96.71
75359;BME280;64046;51.978;5.934;2023-01-08T06:15:39;100050.81;;;13.65;96.79
75359;BME280;64046;51.978;5.934;2023-01-08T06:18:08;100059.97;;;13.72;96.37
75359;BME280;64046;51.978;5.934;2023-01-08T06:20:38;100051.03;;;13.75;95.46
75359;BME280;64046;51.978;5.934;2023-01-08T06:23:07;100053.66;;;13.75;95.37
75359;BME280;64046;51.978;5.934;2023-01-08T06:25:36;100055.34;;;13.76;94.74
75359;BME280;64046;51.978;5.934;2023-01-08T06:28:05;100049.53;;;13.71;94.73
75359;BME280;64046;51.978;5.934;2023-01-08T06:30:37;100052.59;;;13.90;93.91
75359;BME280;64046;51.978;5.934;2023-01-08T06:33:06;100053.88;;;13.72;94.16
75359;BME280;64046;51.978;5.934;2023-01-08T06:35:36;100052.63;;;13.64;93.73
75359;BME280;64046;51.978;5.934;2023-01-08T06:38:05;100054.72;;;13.59;93.60
75359;BME280;64046;51.978;5.934;2023-01-08T06:40:34;100053.13;;;13.57;93.30
75359;BME280;64046;51.978;5.934;2023-01-08T06:43:04;100057.78;;;13.66;92.52
75359;BME280;64046;51.978;5.934;2023-01-08T06:45:33;100064.63;;;13.56;92.65
75359;BME280;64046;51.978;5.934;2023-01-08T06:48:06;100062.72;;;13.71;91.67
75359;BME280;64046;51.978;5.934;2023-01-08T06:50:35;100071.25;;;13.48;92.18
75359;BME280;64046;51.978;5.934;2023-01-08T06:53:04;100075.56;;;13.49;92.21
75359;BME280;64046;51.978;5.934;2023-01-08T06:55:33;100073.91;;;13.48;92.13
75359;BME280;64046;51.978;5.934;2023-01-08T06:58:03;100076.63;;;13.47;91.88
75359;BME280;64046;51.978;5.934;2023-01-08T07:00:32;100065.78;;;13.39;91.88
75359;BME280;64046;51.978;5.934;2023-01-08T07:03:01;100080.91;;;13.35;92.07
75359;BME280;64046;51.978;5.934;2023-01-08T07:05:34;100080.63;;;13.53;91.54
75359;BME280;64046;51.978;5.934;2023-01-08T07:08:04;100073.69;;;13.39;91.80
75359;BME280;64046;51.978;5.934;2023-01-08T07:10:33;100071.34;;;13.34;91.58
75359;BME280;64046;51.978;5.934;2023-01-08T07:13:02;100068.25;;;13.27;91.22
75359;BME280;64046;51.978;5.934;2023-01-08T07:15:32;100063.00;;;13.27;90.73
75359;BME280;64046;51.978;5.934;2023-01-08T07:18:03;100060.59;;;13.24;90.19
75359;BME280;64046;51.978;5.934;2023-01-08T07:20:36;100066.34;;;13.29;89.59
75359;BME280;64046;51.978;5.934;2023-01-08T07:23:08;100072.88;;;13.24;89.62
75359;BME280;64046;51.978;5.934;2023-01-08T07:25:38;100080.69;;;13.12;88.92
75359;BME280;64046;51.978;5.934;2023-01-08T07:28:10;100071.00;;;13.26;88.29
75359;BME280;64046;51.978;5.934;2023-01-08T07:30:39;100082.66;;;13.09;88.31
75359;BME280;64046;51.978;5.934;2023-01-08T07:33:09;100071.50;;;13.05;88.35
75359;BME280;64046;51.978;5.934;2023-01-08T07:35:41;100075.59;;;13.22;88.05
75359;BME280;64046;51.978;5.934;2023-01-08T07:38:10;100076.00;;;13.03;87.95
75359;BME280;64046;51.978;5.934;2023-01-08T07:40:39;100071.91;;;12.99;88.14
75359;BME280;64046;51.978;5.934;2023-01-08T07:43:08;100076.31;;;12.98;87.73
75359;BME280;64046;51.978;5.934;2023-01-08T07:45:38;100071.78;;;13.01;87.22
75359;BME280;64046;51.978;5.934;2023-01-08T07:48:07;100067.28;;;13.03;86.70
75359;BME280;64046;51.978;5.934;2023-01-08T07:50:43;100060.56;;;13.11;86.02
75359;BME280;64046;51.978;5.934;2023-01-08T07:53:13;100057.06;;;12.98;85.84
75359;BME280;64046;51.978;5.934;2023-01-08T07:55:44;100056.13;;;12.99;85.60
75359;BME280;64046;51.978;5.934;2023-01-08T07:58:14;100061.91;;;12.91;85.46
75359;BME280;64046;51.978;5.934;2023-01-08T08:00:43;100064.53;;;12.91;85.27
75359;BME280;64046;51.978;5.934;2023-01-08T08:03:12;100063.88;;;12.88;84.81
75359;BME280;64046;51.978;5.934;2023-01-08T08:05:44;100064.88;;;13.00;84.48
75359;BME280;64046;51.978;5.934;2023-01-08T08:08:13;100076.78;;;12.78;84.43
75359;BME280;64046;51.978;5.934;2023-01-08T08:10:43;100079.59;;;12.75;84.29
75359;BME280;64046;51.978;5.934;2023-01-08T08:13:12;100076.34;;;12.71;84.35
75359;BME280;64046;51.978;5.934;2023-01-08T08:15:41;100071.94;;;12.72;84.28
75359;BME280;64046;51.978;5.934;2023-01-08T08:18:10;100062.28;;;12.72;83.90
75359;BME280;64046;51.978;5.934;2023-01-08T08:20:39;100067.19;;;12.64;83.69
75359;BME280;64046;51.978;5.934;2023-01-08T08:23:13;100057.44;;;12.79;83.54
75359;BME280;64046;51.978;5.934;2023-01-08T08:25:42;100079.56;;;12.62;83.68
75359;BME280;64046;51.978;5.934;2023-01-08T08:28:12;100067.09;;;12.66;83.34
75359;BME280;64046;51.978;5.934;2023-01-08T08:30:41;100074.75;;;12.69;82.85
75359;BME280;64046;51.978;5.934;2023-01-08T08:33:10;100077.09;;;12.73;82.27
75359;BME280;64046;51.978;5.934;2023-01-08T08:35:40;100070.44;;;12.68;82.20
75359;BME280;64046;51.978;5.934;2023-01-08T08:38:11;100066.59;;;12.86;81.74
75359;BME280;64046;51.978;5.934;2023-01-08T08:40:41;100065.63;;;12.74;81.62
75359;BME280;64046;51.978;5.934;2023-01-08T08:43:10;100047.97;;;12.76;81.21
75359;BME280;64046;51.978;5.934;2023-01-08T08:45:39;100056.59;;;12.78;80.93
75359;BME280;64046;51.978;5.934;2023-01-08T08:48:09;100051.13;;;12.81;80.99
75359;BME280;64046;51.978;5.934;2023-01-08T08:50:38;100033.69;;;12.80;80.89
75359;BME280;64046;51.978;5.934;2023-01-08T08:53:11;100038.22;;;12.91;80.82
75359;BME280;64046;51.978;5.934;2023-01-08T08:55:40;100034.81;;;12.76;80.95
75359;BME280;64046;51.978;5.934;2023-01-08T08:58:11;100016.25;;;12.92;80.98
75359;BME280;64046;51.978;5.934;2023-01-08T09:00:42;100018.34;;;12.87;81.22
75359;BME280;64046;51.978;5.934;2023-01-08T09:03:12;100023.91;;;12.83;81.34
75359;BME280;64046;51.978;5.934;2023-01-08T09:05:42;100020.00;;;12.75;81.51
75359;BME280;64046;51.978;5.934;2023-01-08T09:08:14;100027.50;;;12.94;81.51
75359;BME280;64046;51.978;5.934;2023-01-08T09:10:43;100017.91;;;12.80;81.54
75359;BME280;64046;51.978;5.934;2023-01-08T09:13:12;100020.53;;;12.80;81.61
75359;BME280;64046;51.978;5.934;2023-01-08T09:15:41;100025.50;;;12.85;81.70
75359;BME280;64046;51.978;5.934;2023-01-08T09:18:10;100021.69;;;12.89;81.80
75359;BME280;64046;51.978;5.934;2023-01-08T09:20:40;100024.16;;;12.92;81.82
75359;BME280;64046;51.978;5.934;2023-01-08T09:23:09;100020.75;;;12.90;82.04
75359;BME280;64046;51.978;5.934;2023-01-08T09:25:41;100024.88;;;13.07;82.05
75359;BME280;64046;51.978;5.934;2023-01-08T09:28:11;100020.88;;;13.02;82.49
75359;BME280;64046;51.978;5.934;2023-01-08T09:30:42;100033.38;;;12.98;82.48
75359;BME280;64046;51.978;5.934;2023-01-08T09:33:11;100031.09;;;13.06;82.44
75359;BME280;64046;51.978;5.934;2023-01-08T09:35:42;100025.44;;;13.25;81.95
75359;BME280;64046;51.978;5.934;2023-01-08T09:38:12;100025.09;;;13.04;82.40
75359;BME280;64046;51.978;5.934;2023-01-08T09:40:50;100030.47;;;13.15;82.67
75359;BME280;64046;51.978;5.934;2023-01-08T09:43:23;100025.00;;;13.06;83.45
75359;BME280;64046;51.978;5.934;2023-01-08T09:45:56;100025.63;;;13.09;83.56
75359;BME280;64046;51.978;5.934;2023-01-08T09:48:28;100032.25;;;13.15;83.55
75359;BME280;64046;51.978;5.934;2023-01-08T09:50:59;100023.09;;;13.08;83.68
75359;BME280;64046;51.978;5.934;2023-01-08T09:53:28;100020.66;;;13.05;84.04
75359;BME280;64046;51.978;5.934;2023-01-08T09:56:02;100016.69;;;13.12;84.45
75359;BME280;64046;51.978;5.934;2023-01-08T09:58:36;100012.78;;;13.05;85.01
75359;BME280;64046;51.978;5.934;2023-01-08T10:01:06;100016.06;;;12.95;85.33
75359;BME280;64046;51.978;5.934;2023-01-08T10:03:40;100006.69;;;13.04;85.37
75359;BME280;64046;51.978;5.934;2023-01-08T10:06:12;100011.41;;;12.99;85.63
75359;BME280;64046;51.978;5.934;2023-01-08T10:08:42;100021.59;;;12.91;86.12
75359;BME280;64046;51.978;5.934;2023-01-08T10:11:14;100006.16;;;12.99;86.29
75359;BME280;64046;51.978;5.934;2023-01-08T10:13:48;100005.84;;;13.04;86.19
75359;BME280;64046;51.978;5.934;2023-01-08T10:16:23;100007.19;;;13.09;86.14
75359;BME280;64046;51.978;5.934;2023-01-08T10:18:55;100008.06;;;12.97;86.43
75359;BME280;64046;51.978;5.934;2023-01-08T10:21:29;100012.56;;;13.21;86.17
75359;BME280;64046;51.978;5.934;2023-01-08T10:23:59;100009.31;;;13.04;86.55
75359;BME280;64046;51.978;5.934;2023-01-08T10:26:32;100000.19;;;13.23;86.32
75359;BME280;64046;51.978;5.934;2023-01-08T10:29:07;100001.66;;;13.27;86.29
75359;BME280;64046;51.978;5.934;2023-01-08T10:31:46;99999.03;;;13.27;86.25
75359;BME280;64046;51.978;5.934;2023-01-08T10:34:26;99982.59;;;13.23;86.47
75359;BME280;64046;51.978;5.934;2023-01-08T10:36:55;99993.75;;;13.01;87.55
75359;BME280;64046;51.978;5.934;2023-01-08T10:39:26;99988.50;;;13.14;87.42
75359;BME280;64046;51.978;5.934;2023-01-08T10:42:04;99987.31;;;13.31;86.94
75359;BME280;64046;51.978;5.934;2023-01-08T10:44:34;99979.63;;;13.15;87.55
75359;BME280;64046;51.978;5.934;2023-01-08T10:47:04;99986.28;;;13.21;87.64
75359;BME280;64046;51.978;5.934;2023-01-08T10:49:36;99972.84;;;13.38;87.22
75359;BME280;64046;51.978;5.934;2023-01-08T10:52:22;99970.19;;;13.51;86.51
75359;BME280;64046;51.978;5.934;2023-01-08T10:54:52;99967.59;;;13.38;87.42
75359;BME280;64046;51.978;5.934;2023-01-08T10:57:26;99953.97;;;13.57;86.74
75359;BME280;64046;51.978;5.934;2023-01-08T10:59:56;99956.28;;;13.49;87.23
75359;BME280;64046;51.978;5.934;2023-01-08T11:02:32;99947.19;;;13.66;86.71
75359;BME280;64046;51.978;5.934;2023-01-08T11:05:04;99944.78;;;13.63;87.16
75359;BME280;64046;51.978;5.934;2023-01-08T11:07:36;99943.22;;;13.60;86.88
75359;BME280;64046;51.978;5.934;2023-01-08T11:10:19;99941.34;;;13.87;85.88
75359;BME280;64046;51.978;5.934;2023-01-08T11:12:57;99926.63;;;13.84;86.24
75359;BME280;64046;51.978;5.934;2023-01-08T11:15:33;99936.00;;;13.75;86.71
75359;BME280;64046;51.978;5.934;2023-01-08T11:18:10;99926.56;;;13.73;86.48
75359;BME280;64046;51.978;5.934;2023-01-08T11:20:41;99923.47;;;13.42;87.62
75359;BME280;64046;51.978;5.934;2023-01-08T11:23:18;99919.41;;;13.62;86.61
75359;BME280;64046;51.978;5.934;2023-01-08T11:25:54;99928.81;;;13.53;87.37
75359;BME280;64046;51.978;5.934;2023-01-08T11:28:35;99919.00;;;13.55;87.18
75359;BME280;64046;51.978;5.934;2023-01-08T11:31:13;99913.47;;;13.47;87.53
75359;BME280;64046;51.978;5.934;2023-01-08T11:33:43;99908.59;;;13.41;88.23
75359;BME280;64046;51.978;5.934;2023-01-08T11:36:20;99895.31;;;13.55;87.46
75359;BME280;64046;51.978;5.934;2023-01-08T11:38:51;99902.41;;;13.42;87.87
75359;BME280;64046;51.978;5.934;2023-01-08T11:41:31;99902.84;;;13.73;86.90
75359;BME280;64046;51.978;5.934;2023-01-08T11:44:16;99890.94;;;13.80;86.36
75359;BME280;64046;51.978;5.934;2023-01-08T11:46:53;99884.91;;;13.78;86.53
75359;BME280;64046;51.978;5.934;2023-01-08T11:49:46;99889.41;;;13.89;85.43
75359;BME280;64046;51.978;5.934;2023-01-08T11:52:29;99875.00;;;13.81;85.83
75359;BME280;64046;51.978;5.934;2023-01-08T11:55:10;99861.22;;;13.78;85.87
75359;BME280;64046;51.978;5.934;2023-01-08T11:57:49;99862.28;;;13.75;86.22
75359;BME280;64046;51.978;5.934;2023-01-08T12:00:36;99859.94;;;13.83;85.71
75359;BME280;64046;51.978;5.934;2023-01-08T12:03:15;99863.66;;;13.92;85.51
75359;BME280;64046;51.978;5.934;2023-01-08T12:05:49;99846.47;;;13.99;85.49
75359;BME280;64046;51.978;5.934;2023-01-08T12:08:30;99843.75;;;14.12;84.26
75359;BME280;64046;51.978;5.934;2023-01-08T12:11:07;99843.44;;;14.17;83.47
75359;BME280;64046;51.978;5.934;2023-01-08T12:13:51;99841.78;;;14.27;82.27
75359;BME280;64046;51.978;5.934;2023-01-08T12:16:37;99837.97;;;14.31;81.74
75359;BME280;64046;51.978;5.934;2023-01-08T12:19:21;99824.88;;;14.30;81.54
75359;BME280;64046;51.978;5.934;2023-01-08T12:22:03;99824.16;;;14.28;82.05
75359;BME280;64046;51.978;5.934;2023-01-08T12:24:48;99825.38;;;14.35;81.82
75359;BME280;64046;51.978;5.934;2023-01-08T12:27:27;99826.31;;;14.34;81.93
75359;BME280;64046;51.978;5.934;2023-01-08T12:30:15;99823.81;;;14.44;80.96
75359;BME280;64046;51.978;5.934;2023-01-08T12:32:53;99823.81;;;14.44;80.73
75359;BME280;64046;51.978;5.934;2023-01-08T12:35:28;99826.19;;;14.35;81.13
75359;BME280;64046;51.978;5.934;2023-01-08T12:38:04;99819.50;;;14.43;80.83
75359;BME280;64046;51.978;5.934;2023-01-08T12:40:39;99809.59;;;14.46;80.67
75359;BME280;64046;51.978;5.934;2023-01-08T12:43:13;99802.50;;;14.47;80.05
75359;BME280;64046;51.978;5.934;2023-01-08T12:45:45;99804.16;;;14.36;80.39
75359;BME280;64046;51.978;5.934;2023-01-08T12:48:19;99796.41;;;14.46;79.52
75359;BME280;64046;51.978;5.934;2023-01-08T12:50:58;99797.72;;;14.52;79.21
75359;BME280;64046;51.978;5.934;2023-01-08T12:53:36;99782.63;;;14.54;79.02
75359;BME280;64046;51.978;5.934;2023-01-08T12:56:13;99797.09;;;14.48;79.05
75359;BME280;64046;51.978;5.934;2023-01-08T12:59:03;99791.25;;;14.56;78.07
75359;BME280;64046;51.978;5.934;2023-01-08T13:01:40;99787.66;;;14.46;78.73
75359;BME280;64046;51.978;5.934;2023-01-08T13:04:14;99789.56;;;14.44;78.85
75359;BME280;64046;51.978;5.934;2023-01-08T13:06:51;99785.25;;;14.54;77.97
75359;BME280;64046;51.978;5.934;2023-01-08T13:09:23;99781.78;;;14.42;78.43
75359;BME280;64046;51.978;5.934;2023-01-08T13:11:55;99784.06;;;14.47;78.23
75359;BME280;64046;51.978;5.934;2023-01-08T13:14:26;99789.22;;;14.37;78.50
75359;BME280;64046;51.978;5.934;2023-01-08T13:17:04;99786.56;;;14.48;77.76
75359;BME280;64046;51.978;5.934;2023-01-08T13:19:39;99792.19;;;14.44;78.17